Leola, Pennsylvania
Current Conditions -  °F | °C
As of 5:53 AM on Thursday 27 Nov 2014 (Local Time) from KLNS Reporting Station
Overcast Overcast  
Wind Chill: 28°   Ceiling: 7500
Heat Index: 33°   Visibility: 10mi
Dew Point: 29°   Wind: 6mph
Humidity: 85%   Direction: 310°NW
Pressure: 29.98"   Gusts: NA
Location:  40.09°N, 76.18°W
Report Text: KLNS 271053Z AUTO 31005KT 10SM OVC075 01/M02 A2998 RMK AO2 SLP156 T00061017
Loading
Personal Weather Stations






























Interactive Weather Map New forecast layout! Learn more

10-Day Weather Forecast

Advertisements
Track Severe Weather on mobile